sensor_id;sensor_type;location;lat;lon;timestamp;noise_LAeq;noise_LA_min;noise_LA_max;noise_LA01;noise_LA95
74292;Laerm;62687;55.738;37.516;2023-04-25T00:01:23;68.31;59.47;76.93;;
74292;Laerm;62687;55.738;37.516;2023-04-25T00:04:08;66.22;57.02;74.43;;
74292;Laerm;62687;55.738;37.516;2023-04-25T00:06:52;64.85;53.60;77.12;;
74292;Laerm;62687;55.738;37.516;2023-04-25T00:09:36;65.07;54.01;73.19;;
74292;Laerm;62687;55.738;37.516;2023-04-25T00:12:20;68.28;53.03;83.00;;
74292;Laerm;62687;55.738;37.516;2023-04-25T00:15:07;65.13;56.16;70.95;;
74292;Laerm;62687;55.738;37.516;2023-04-25T00:17:51;65.04;55.04;76.27;;
74292;Laerm;62687;55.738;37.516;2023-04-25T00:20:37;65.01;54.11;71.66;;
74292;Laerm;62687;55.738;37.516;2023-04-25T00:23:21;65.42;54.79;75.00;;
74292;Laerm;62687;55.738;37.516;2023-04-25T00:26:05;66.12;56.63;79.36;;
74292;Laerm;62687;55.738;37.516;2023-04-25T00:28:49;65.56;54.43;75.32;;
74292;Laerm;62687;55.738;37.516;2023-04-25T00:31:33;65.44;52.28;75.53;;
74292;Laerm;62687;55.738;37.516;2023-04-25T00:34:17;66.56;54.06;74.19;;
74292;Laerm;62687;55.738;37.516;2023-04-25T00:37:01;65.88;55.85;74.09;;
74292;Laerm;62687;55.738;37.516;2023-04-25T00:39:46;66.31;57.93;73.68;;
74292;Laerm;62687;55.738;37.516;2023-04-25T00:42:31;65.43;57.69;74.38;;
74292;Laerm;62687;55.738;37.516;2023-04-25T00:45:16;63.79;53.64;69.16;;
74292;Laerm;62687;55.738;37.516;2023-04-25T00:48:01;64.43;53.63;73.81;;
74292;Laerm;62687;55.738;37.516;2023-04-25T00:50:52;66.13;54.40;74.86;;
74292;Laerm;62687;55.738;37.516;2023-04-25T00:53:36;67.41;56.68;75.12;;
74292;Laerm;62687;55.738;37.516;2023-04-25T00:56:21;68.54;58.14;79.34;;
74292;Laerm;62687;55.738;37.516;2023-04-25T00:59:05;65.81;57.46;74.56;;
74292;Laerm;62687;55.738;37.516;2023-04-25T01:01:49;66.10;56.84;74.00;;
74292;Laerm;62687;55.738;37.516;2023-04-25T01:04:34;66.48;54.79;82.46;;
74292;Laerm;62687;55.738;37.516;2023-04-25T01:07:18;64.13;53.11;71.56;;
74292;Laerm;62687;55.738;37.516;2023-04-25T01:10:03;65.34;56.56;75.50;;
74292;Laerm;62687;55.738;37.516;2023-04-25T01:12:47;65.72;57.38;77.13;;
74292;Laerm;62687;55.738;37.516;2023-04-25T01:15:32;63.79;54.66;70.42;;
74292;Laerm;62687;55.738;37.516;2023-04-25T01:18:16;65.35;56.27;72.47;;
74292;Laerm;62687;55.738;37.516;2023-04-25T01:21:10;67.42;54.73;78.98;;
74292;Laerm;62687;55.738;37.516;2023-04-25T01:23:54;67.28;57.73;74.67;;
74292;Laerm;62687;55.738;37.516;2023-04-25T01:26:40;66.42;57.98;72.90;;
74292;Laerm;62687;55.738;37.516;2023-04-25T01:29:29;66.62;58.07;77.07;;
74292;Laerm;62687;55.738;37.516;2023-04-25T01:32:14;65.95;56.15;77.02;;
74292;Laerm;62687;55.738;37.516;2023-04-25T01:34:58;65.49;55.62;74.02;;
74292;Laerm;62687;55.738;37.516;2023-04-25T01:37:43;66.64;55.90;76.57;;
74292;Laerm;62687;55.738;37.516;2023-04-25T01:40:27;67.27;59.17;74.33;;
74292;Laerm;62687;55.738;37.516;2023-04-25T01:43:12;66.20;56.72;76.19;;
74292;Laerm;62687;55.738;37.516;2023-04-25T01:45:58;65.83;58.42;75.95;;
74292;Laerm;62687;55.738;37.516;2023-04-25T01:48:43;67.02;58.33;77.44;;
74292;Laerm;62687;55.738;37.516;2023-04-25T01:51:27;67.35;54.13;78.90;;
74292;Laerm;62687;55.738;37.516;2023-04-25T01:54:12;66.00;57.76;73.54;;
74292;Laerm;62687;55.738;37.516;2023-04-25T01:56:57;65.94;56.64;73.38;;
74292;Laerm;62687;55.738;37.516;2023-04-25T01:59:42;67.55;60.54;74.05;;
74292;Laerm;62687;55.738;37.516;2023-04-25T02:02:27;67.77;59.40;75.02;;
74292;Laerm;62687;55.738;37.516;2023-04-25T02:05:11;69.62;62.76;75.85;;
74292;Laerm;62687;55.738;37.516;2023-04-25T02:07:55;68.12;58.92;74.95;;
74292;Laerm;62687;55.738;37.516;2023-04-25T02:10:39;68.08;61.01;74.96;;
74292;Laerm;62687;55.738;37.516;2023-04-25T02:13:23;69.50;61.41;80.81;;
74292;Laerm;62687;55.738;37.516;2023-04-25T02:16:08;67.77;59.91;74.60;;
74292;Laerm;62687;55.738;37.516;2023-04-25T02:18:52;68.31;59.55;75.10;;
74292;Laerm;62687;55.738;37.516;2023-04-25T02:21:37;67.40;60.03;77.79;;
74292;Laerm;62687;55.738;37.516;2023-04-25T02:24:21;67.68;60.23;73.25;;
74292;Laerm;62687;55.738;37.516;2023-04-25T02:27:05;69.56;62.78;75.17;;
74292;Laerm;62687;55.738;37.516;2023-04-25T02:29:49;69.87;62.13;85.37;;
74292;Laerm;62687;55.738;37.516;2023-04-25T02:32:34;69.81;63.78;80.30;;
74292;Laerm;62687;55.738;37.516;2023-04-25T02:35:18;69.59;63.39;76.14;;
74292;Laerm;62687;55.738;37.516;2023-04-25T02:38:02;70.05;63.76;76.37;;
74292;Laerm;62687;55.738;37.516;2023-04-25T02:40:46;69.74;64.12;76.31;;
74292;Laerm;62687;55.738;37.516;2023-04-25T02:43:30;69.99;62.71;81.03;;
74292;Laerm;62687;55.738;37.516;2023-04-25T02:46:14;69.81;61.56;77.50;;
74292;Laerm;62687;55.738;37.516;2023-04-25T02:48:59;70.48;64.51;76.36;;
74292;Laerm;62687;55.738;37.516;2023-04-25T02:51:43;70.24;62.44;78.29;;
74292;Laerm;62687;55.738;37.516;2023-04-25T02:54:27;70.54;64.66;79.93;;
74292;Laerm;62687;55.738;37.516;2023-04-25T02:57:12;72.05;65.29;82.82;;
74292;Laerm;62687;55.738;37.516;2023-04-25T02:59:56;70.54;64.74;79.94;;
74292;Laerm;62687;55.738;37.516;2023-04-25T03:02:40;71.55;66.77;75.72;;
74292;Laerm;62687;55.738;37.516;2023-04-25T03:05:24;71.42;65.56;76.49;;
74292;Laerm;62687;55.738;37.516;2023-04-25T03:08:08;71.82;66.42;77.80;;
74292;Laerm;62687;55.738;37.516;2023-04-25T03:10:53;71.89;65.50;76.84;;
74292;Laerm;62687;55.738;37.516;2023-04-25T03:13:39;71.51;64.92;75.56;;
74292;Laerm;62687;55.738;37.516;2023-04-25T03:16:23;71.61;65.06;78.36;;
74292;Laerm;62687;55.738;37.516;2023-04-25T03:19:08;71.26;65.98;75.27;;
74292;Laerm;62687;55.738;37.516;2023-04-25T03:21:52;71.81;63.61;76.99;;
74292;Laerm;62687;55.738;37.516;2023-04-25T03:24:37;72.68;67.43;78.30;;
74292;Laerm;62687;55.738;37.516;2023-04-25T03:27:21;71.95;65.16;78.67;;
74292;Laerm;62687;55.738;37.516;2023-04-25T03:30:06;71.93;66.21;76.99;;
74292;Laerm;62687;55.738;37.516;2023-04-25T03:32:51;71.55;65.13;75.28;;
74292;Laerm;62687;55.738;37.516;2023-04-25T03:35:35;72.58;67.38;76.87;;
74292;Laerm;62687;55.738;37.516;2023-04-25T03:38:19;72.67;66.02;78.02;;
74292;Laerm;62687;55.738;37.516;2023-04-25T03:41:04;72.56;67.32;77.04;;
74292;Laerm;62687;55.738;37.516;2023-04-25T03:43:48;73.59;68.82;86.73;;
74292;Laerm;62687;55.738;37.516;2023-04-25T03:46:32;73.35;66.46;77.82;;
74292;Laerm;62687;55.738;37.516;2023-04-25T03:49:16;73.61;67.87;77.78;;
74292;Laerm;62687;55.738;37.516;2023-04-25T03:52:01;73.80;68.57;77.01;;
74292;Laerm;62687;55.738;37.516;2023-04-25T03:54:45;73.29;67.83;77.15;;
74292;Laerm;62687;55.738;37.516;2023-04-25T03:57:29;73.90;69.76;78.48;;
74292;Laerm;62687;55.738;37.516;2023-04-25T04:00:14;73.65;67.95;78.33;;
74292;Laerm;62687;55.738;37.516;2023-04-25T04:02:58;74.15;69.22;81.44;;
74292;Laerm;62687;55.738;37.516;2023-04-25T04:05:42;73.97;68.94;82.09;;
74292;Laerm;62687;55.738;37.516;2023-04-25T04:08:26;74.12;69.01;81.08;;
74292;Laerm;62687;55.738;37.516;2023-04-25T04:11:11;74.26;69.94;83.78;;
74292;Laerm;62687;55.738;37.516;2023-04-25T04:13:55;74.18;68.62;77.65;;
74292;Laerm;62687;55.738;37.516;2023-04-25T04:16:39;74.77;69.14;78.55;;
74292;Laerm;62687;55.738;37.516;2023-04-25T04:19:23;75.01;69.92;87.31;;
74292;Laerm;62687;55.738;37.516;2023-04-25T04:22:07;74.16;69.96;77.62;;
74292;Laerm;62687;55.738;37.516;2023-04-25T04:24:51;74.25;69.51;78.12;;
74292;Laerm;62687;55.738;37.516;2023-04-25T04:27:39;74.18;68.57;77.86;;
74292;Laerm;62687;55.738;37.516;2023-04-25T04:30:24;73.86;69.41;78.63;;
74292;Laerm;62687;55.738;37.516;2023-04-25T04:33:09;74.40;70.27;85.94;;
74292;Laerm;62687;55.738;37.516;2023-04-25T04:35:53;74.17;70.03;78.05;;
74292;Laerm;62687;55.738;37.516;2023-04-25T04:38:37;74.40;70.18;78.06;;
74292;Laerm;62687;55.738;37.516;2023-04-25T04:41:21;74.28;69.73;77.54;;
74292;Laerm;62687;55.738;37.516;2023-04-25T04:44:05;74.58;69.71;79.25;;
74292;Laerm;62687;55.738;37.516;2023-04-25T04:46:50;74.02;68.68;77.48;;
74292;Laerm;62687;55.738;37.516;2023-04-25T04:49:36;74.50;70.63;78.38;;
74292;Laerm;62687;55.738;37.516;2023-04-25T04:52:20;74.06;68.26;77.56;;
74292;Laerm;62687;55.738;37.516;2023-04-25T04:55:05;74.65;70.34;83.12;;
74292;Laerm;62687;55.738;37.516;2023-04-25T04:57:49;74.79;68.90;79.95;;
74292;Laerm;62687;55.738;37.516;2023-04-25T05:00:33;73.91;69.52;78.35;;
74292;Laerm;62687;55.738;37.516;2023-04-25T05:03:18;74.72;70.59;82.63;;
74292;Laerm;62687;55.738;37.516;2023-04-25T05:06:02;74.06;69.80;79.09;;
74292;Laerm;62687;55.738;37.516;2023-04-25T05:08:46;74.06;70.00;77.91;;
74292;Laerm;62687;55.738;37.516;2023-04-25T05:11:31;74.42;70.66;82.69;;
74292;Laerm;62687;55.738;37.516;2023-04-25T05:14:15;73.55;68.42;77.66;;
74292;Laerm;62687;55.738;37.516;2023-04-25T05:17:01;73.72;69.65;82.17;;
74292;Laerm;62687;55.738;37.516;2023-04-25T05:19:45;73.51;69.20;81.50;;
74292;Laerm;62687;55.738;37.516;2023-04-25T05:22:29;74.20;70.68;81.03;;
74292;Laerm;62687;55.738;37.516;2023-04-25T05:25:13;74.13;69.78;81.95;;
74292;Laerm;62687;55.738;37.516;2023-04-25T05:27:58;73.18;68.53;79.05;;
74292;Laerm;62687;55.738;37.516;2023-04-25T05:30:42;73.10;67.47;77.23;;
74292;Laerm;62687;55.738;37.516;2023-04-25T05:33:26;73.41;70.12;79.65;;
74292;Laerm;62687;55.738;37.516;2023-04-25T05:36:11;74.70;70.98;88.01;;
74292;Laerm;62687;55.738;37.516;2023-04-25T05:38:55;74.87;70.94;84.79;;
74292;Laerm;62687;55.738;37.516;2023-04-25T05:41:39;74.17;70.51;79.87;;
74292;Laerm;62687;55.738;37.516;2023-04-25T05:44:23;74.20;70.60;77.94;;
74292;Laerm;62687;55.738;37.516;2023-04-25T05:47:08;73.98;68.90;84.29;;
74292;Laerm;62687;55.738;37.516;2023-04-25T05:49:51;74.61;69.99;81.91;;
74292;Laerm;62687;55.738;37.516;2023-04-25T05:52:36;74.05;69.72;81.01;;
74292;Laerm;62687;55.738;37.516;2023-04-25T05:55:20;73.12;68.35;76.65;;
74292;Laerm;62687;55.738;37.516;2023-04-25T05:58:05;72.48;66.85;76.55;;
74292;Laerm;62687;55.738;37.516;2023-04-25T06:00:50;72.82;67.32;79.31;;
74292;Laerm;62687;55.738;37.516;2023-04-25T06:03:34;73.48;68.19;81.81;;
74292;Laerm;62687;55.738;37.516;2023-04-25T06:06:19;75.30;69.51;92.24;;
74292;Laerm;62687;55.738;37.516;2023-04-25T06:09:03;73.76;69.75;79.28;;
74292;Laerm;62687;55.738;37.516;2023-04-25T06:11:47;73.70;69.36;84.10;;
74292;Laerm;62687;55.738;37.516;2023-04-25T06:14:32;73.67;68.90;79.28;;
74292;Laerm;62687;55.738;37.516;2023-04-25T06:17:16;74.32;69.93;85.33;;
74292;Laerm;62687;55.738;37.516;2023-04-25T06:20:00;73.40;68.47;79.82;;
74292;Laerm;62687;55.738;37.516;2023-04-25T06:22:44;73.30;68.79;78.31;;
74292;Laerm;62687;55.738;37.516;2023-04-25T06:25:28;73.41;68.59;84.46;;
74292;Laerm;62687;55.738;37.516;2023-04-25T06:28:12;73.17;67.55;81.13;;
74292;Laerm;62687;55.738;37.516;2023-04-25T06:30:56;72.99;68.17;77.58;;
74292;Laerm;62687;55.738;37.516;2023-04-25T06:33:40;74.14;69.96;83.27;;
74292;Laerm;62687;55.738;37.516;2023-04-25T06:36:24;73.20;68.76;77.14;;
74292;Laerm;62687;55.738;37.516;2023-04-25T06:39:11;73.63;69.06;88.10;;
74292;Laerm;62687;55.738;37.516;2023-04-25T06:41:55;73.56;68.34;85.31;;
74292;Laerm;62687;55.738;37.516;2023-04-25T06:44:39;74.49;69.16;83.30;;
74292;Laerm;62687;55.738;37.516;2023-04-25T06:47:23;74.06;69.24;87.68;;
74292;Laerm;62687;55.738;37.516;2023-04-25T06:50:08;73.83;67.76;91.75;;
74292;Laerm;62687;55.738;37.516;2023-04-25T06:52:52;74.27;66.99;87.88;;
74292;Laerm;62687;55.738;37.516;2023-04-25T06:55:36;73.93;68.45;88.59;;
74292;Laerm;62687;55.738;37.516;2023-04-25T06:58:20;72.55;68.54;76.61;;
74292;Laerm;62687;55.738;37.516;2023-04-25T07:01:05;75.15;68.84;91.00;;
74292;Laerm;62687;55.738;37.516;2023-04-25T07:03:49;73.15;67.77;78.55;;
74292;Laerm;62687;55.738;37.516;2023-04-25T07:06:34;72.55;66.73;82.94;;
74292;Laerm;62687;55.738;37.516;2023-04-25T07:09:18;72.66;69.04;80.94;;
74292;Laerm;62687;55.738;37.516;2023-04-25T07:12:02;72.06;67.12;78.18;;
74292;Laerm;62687;55.738;37.516;2023-04-25T07:14:47;73.27;68.43;82.71;;
74292;Laerm;62687;55.738;37.516;2023-04-25T07:17:31;72.62;68.38;76.18;;
74292;Laerm;62687;55.738;37.516;2023-04-25T07:20:16;72.28;68.38;76.59;;
74292;Laerm;62687;55.738;37.516;2023-04-25T07:23:00;72.32;68.34;85.40;;
74292;Laerm;62687;55.738;37.516;2023-04-25T07:25:45;72.46;68.01;78.70;;
74292;Laerm;62687;55.738;37.516;2023-04-25T07:28:29;72.73;67.71;84.99;;
74292;Laerm;62687;55.738;37.516;2023-04-25T07:31:13;72.72;65.48;76.82;;
74292;Laerm;62687;55.738;37.516;2023-04-25T07:33:57;74.09;65.06;86.26;;
74292;Laerm;62687;55.738;37.516;2023-04-25T07:36:41;68.56;63.97;78.67;;
74292;Laerm;62687;55.738;37.516;2023-04-25T07:39:26;71.28;66.20;77.61;;
74292;Laerm;62687;55.738;37.516;2023-04-25T07:42:10;72.70;65.24;83.26;;
74292;Laerm;62687;55.738;37.516;2023-04-25T07:44:54;72.71;66.09;82.47;;
74292;Laerm;62687;55.738;37.516;2023-04-25T07:47:38;72.08;68.25;76.12;;
74292;Laerm;62687;55.738;37.516;2023-04-25T07:50:22;72.58;67.49;75.92;;
74292;Laerm;62687;55.738;37.516;2023-04-25T07:53:07;72.97;67.18;82.59;;
74292;Laerm;62687;55.738;37.516;2023-04-25T07:55:51;72.82;68.74;77.21;;
74292;Laerm;62687;55.738;37.516;2023-04-25T07:58:35;73.99;68.60;84.31;;
74292;Laerm;62687;55.738;37.516;2023-04-25T08:01:20;73.24;68.16;77.27;;
74292;Laerm;62687;55.738;37.516;2023-04-25T08:04:05;73.11;68.39;77.55;;
74292;Laerm;62687;55.738;37.516;2023-04-25T08:06:49;73.06;68.83;77.39;;
74292;Laerm;62687;55.738;37.516;2023-04-25T08:09:33;73.93;68.84;82.94;;
74292;Laerm;62687;55.738;37.516;2023-04-25T08:12:19;73.43;69.76;77.12;;
74292;Laerm;62687;55.738;37.516;2023-04-25T08:15:05;72.64;66.96;77.08;;
74292;Laerm;62687;55.738;37.516;2023-04-25T08:20:23;73.54;69.20;77.14;;
74292;Laerm;62687;55.738;37.516;2023-04-25T08:23:07;73.27;69.15;79.39;;
74292;Laerm;62687;55.738;37.516;2023-04-25T08:25:51;73.29;68.30;83.68;;
74292;Laerm;62687;55.738;37.516;2023-04-25T08:28:35;73.94;69.76;77.70;;
74292;Laerm;62687;55.738;37.516;2023-04-25T08:31:19;74.28;69.16;85.06;;
74292;Laerm;62687;55.738;37.516;2023-04-25T08:34:04;73.21;67.96;77.73;;
74292;Laerm;62687;55.738;37.516;2023-04-25T08:36:48;73.67;69.31;81.73;;
74292;Laerm;62687;55.738;37.516;2023-04-25T08:39:32;72.26;67.23;76.42;;
74292;Laerm;62687;55.738;37.516;2023-04-25T08:42:17;73.02;65.92;80.45;;
74292;Laerm;62687;55.738;37.516;2023-04-25T08:45:02;73.24;69.15;78.53;;
74292;Laerm;62687;55.738;37.516;2023-04-25T08:47:47;72.94;68.43;79.98;;
74292;Laerm;62687;55.738;37.516;2023-04-25T08:50:33;72.87;67.34;81.98;;
74292;Laerm;62687;55.738;37.516;2023-04-25T08:53:24;72.35;66.79;77.00;;
74292;Laerm;62687;55.738;37.516;2023-04-25T08:56:10;73.46;69.96;77.36;;
74292;Laerm;62687;55.738;37.516;2023-04-25T08:58:57;72.78;67.61;79.41;;
74292;Laerm;62687;55.738;37.516;2023-04-25T09:01:41;72.53;67.93;83.66;;
74292;Laerm;62687;55.738;37.516;2023-04-25T09:04:25;73.14;66.10;82.53;;
74292;Laerm;62687;55.738;37.516;2023-04-25T09:07:10;73.30;68.59;77.86;;
74292;Laerm;62687;55.738;37.516;2023-04-25T09:09:54;73.79;68.83;79.47;;
74292;Laerm;62687;55.738;37.516;2023-04-25T09:12:38;73.52;68.84;83.13;;
74292;Laerm;62687;55.738;37.516;2023-04-25T09:15:23;73.30;69.53;76.88;;
74292;Laerm;62687;55.738;37.516;2023-04-25T09:18:07;73.55;69.48;84.62;;
74292;Laerm;62687;55.738;37.516;2023-04-25T09:23:49;73.76;69.67;81.35;;
74292;Laerm;62687;55.738;37.516;2023-04-25T09:26:35;73.15;68.52;85.53;;
74292;Laerm;62687;55.738;37.516;2023-04-25T09:29:29;73.24;68.70;79.44;;
74292;Laerm;62687;55.738;37.516;2023-04-25T09:35:02;73.57;68.62;77.92;;
74292;Laerm;62687;55.738;37.516;2023-04-25T09:37:48;73.70;68.92;77.85;;
74292;Laerm;62687;55.738;37.516;2023-04-25T09:40:32;72.98;68.44;76.30;;
74292;Laerm;62687;55.738;37.516;2023-04-25T09:43:23;72.79;68.12;76.53;;
74292;Laerm;62687;55.738;37.516;2023-04-25T09:46:09;72.87;66.72;80.36;;
74292;Laerm;62687;55.738;37.516;2023-04-25T09:48:53;72.17;66.17;78.89;;
74292;Laerm;62687;55.738;37.516;2023-04-25T09:51:37;72.41;67.84;78.70;;
74292;Laerm;62687;55.738;37.516;2023-04-25T09:54:22;72.61;66.90;79.81;;
74292;Laerm;62687;55.738;37.516;2023-04-25T09:57:10;72.99;68.21;84.32;;
74292;Laerm;62687;55.738;37.516;2023-04-25T09:59:55;73.01;68.16;79.51;;
74292;Laerm;62687;55.738;37.516;2023-04-25T10:02:39;72.93;68.74;83.90;;
74292;Laerm;62687;55.738;37.516;2023-04-25T10:05:27;72.70;68.02;76.93;;
74292;Laerm;62687;55.738;37.516;2023-04-25T10:08:14;73.12;68.65;86.28;;
74292;Laerm;62687;55.738;37.516;2023-04-25T10:11:04;72.87;68.23;77.49;;
74292;Laerm;62687;55.738;37.516;2023-04-25T10:13:48;72.83;68.70;78.03;;
74292;Laerm;62687;55.738;37.516;2023-04-25T10:16:33;73.13;68.11;81.94;;
74292;Laerm;62687;55.738;37.516;2023-04-25T10:19:17;72.51;67.89;79.07;;
74292;Laerm;62687;55.738;37.516;2023-04-25T10:22:10;72.46;67.63;78.02;;
74292;Laerm;62687;55.738;37.516;2023-04-25T10:24:56;72.72;68.18;77.99;;
74292;Laerm;62687;55.738;37.516;2023-04-25T10:27:41;73.29;68.63;82.46;;
74292;Laerm;62687;55.738;37.516;2023-04-25T10:30:25;73.58;68.88;79.13;;
74292;Laerm;62687;55.738;37.516;2023-04-25T10:33:17;72.61;67.03;76.83;;
74292;Laerm;62687;55.738;37.516;2023-04-25T10:36:31;71.72;66.82;81.62;;
74292;Laerm;62687;55.738;37.516;2023-04-25T10:39:22;72.96;68.06;88.90;;
74292;Laerm;62687;55.738;37.516;2023-04-25T10:42:06;71.99;67.63;77.06;;
74292;Laerm;62687;55.738;37.516;2023-04-25T10:45:05;72.57;66.87;77.51;;
74292;Laerm;62687;55.738;37.516;2023-04-25T10:47:49;71.98;67.24;75.87;;
74292;Laerm;62687;55.738;37.516;2023-04-25T10:50:38;71.97;68.33;77.41;;
74292;Laerm;62687;55.738;37.516;2023-04-25T10:53:24;71.93;68.13;75.56;;
74292;Laerm;62687;55.738;37.516;2023-04-25T10:56:22;72.19;68.20;80.97;;
74292;Laerm;62687;55.738;37.516;2023-04-25T10:59:13;71.84;66.83;77.62;;
74292;Laerm;62687;55.738;37.516;2023-04-25T11:01:58;71.86;66.38;80.84;;
74292;Laerm;62687;55.738;37.516;2023-04-25T11:04:42;71.93;66.37;77.77;;
74292;Laerm;62687;55.738;37.516;2023-04-25T11:07:37;70.83;66.92;76.91;;
74292;Laerm;62687;55.738;37.516;2023-04-25T11:10:25;71.89;67.15;79.73;;
74292;Laerm;62687;55.738;37.516;2023-04-25T11:13:10;72.12;67.10;76.42;;
74292;Laerm;62687;55.738;37.516;2023-04-25T11:15:53;72.84;67.82;83.93;;
74292;Laerm;62687;55.738;37.516;2023-04-25T11:18:41;73.38;68.52;80.08;;
74292;Laerm;62687;55.738;37.516;2023-04-25T11:21:25;73.56;68.80;81.58;;
74292;Laerm;62687;55.738;37.516;2023-04-25T11:24:16;73.64;69.29;87.80;;
74292;Laerm;62687;55.738;37.516;2023-04-25T11:29:30;73.27;69.29;84.24;;
74292;Laerm;62687;55.738;37.516;2023-04-25T11:32:15;71.68;66.94;83.48;;
74292;Laerm;62687;55.738;37.516;2023-04-25T11:35:00;70.90;66.61;77.05;;
74292;Laerm;62687;55.738;37.516;2023-04-25T11:37:44;72.15;68.13;80.27;;
74292;Laerm;62687;55.738;37.516;2023-04-25T11:40:30;73.13;68.38;81.56;;
74292;Laerm;62687;55.738;37.516;2023-04-25T11:43:14;73.77;69.75;78.51;;
74292;Laerm;62687;55.738;37.516;2023-04-25T11:45:58;73.19;68.63;81.94;;
74292;Laerm;62687;55.738;37.516;2023-04-25T11:48:42;72.76;67.86;77.06;;
74292;Laerm;62687;55.738;37.516;2023-04-25T11:51:26;73.67;69.56;82.53;;
74292;Laerm;62687;55.738;37.516;2023-04-25T11:54:11;73.16;69.01;82.76;;
74292;Laerm;62687;55.738;37.516;2023-04-25T11:56:56;72.93;68.47;76.50;;
74292;Laerm;62687;55.738;37.516;2023-04-25T11:59:40;72.61;68.09;76.27;;
74292;Laerm;62687;55.738;37.516;2023-04-25T12:02:25;72.48;67.25;78.30;;
74292;Laerm;62687;55.738;37.516;2023-04-25T12:05:11;72.39;67.70;76.61;;
74292;Laerm;62687;55.738;37.516;2023-04-25T12:07:56;72.70;68.40;80.15;;
74292;Laerm;62687;55.738;37.516;2023-04-25T12:10:40;71.79;67.60;77.27;;
74292;Laerm;62687;55.738;37.516;2023-04-25T12:13:26;71.88;66.27;76.59;;
74292;Laerm;62687;55.738;37.516;2023-04-25T12:16:11;72.14;65.98;75.80;;
74292;Laerm;62687;55.738;37.516;2023-04-25T12:18:56;73.56;68.03;87.04;;
74292;Laerm;62687;55.738;37.516;2023-04-25T12:21:41;72.67;67.07;76.73;;
74292;Laerm;62687;55.738;37.516;2023-04-25T12:24:26;72.66;67.46;77.38;;
74292;Laerm;62687;55.738;37.516;2023-04-25T12:27:14;73.46;69.65;80.60;;
74292;Laerm;62687;55.738;37.516;2023-04-25T12:32:33;73.32;68.94;79.52;;
74292;Laerm;62687;55.738;37.516;2023-04-25T12:35:17;73.27;69.33;77.06;;
74292;Laerm;62687;55.738;37.516;2023-04-25T12:38:01;73.33;69.48;78.10;;
74292;Laerm;62687;55.738;37.516;2023-04-25T12:40:45;73.38;69.17;80.58;;
74292;Laerm;62687;55.738;37.516;2023-04-25T12:43:29;73.61;69.92;83.87;;
74292;Laerm;62687;55.738;37.516;2023-04-25T12:46:13;73.52;68.67;84.60;;
74292;Laerm;62687;55.738;37.516;2023-04-25T12:48:58;73.94;69.72;77.67;;
74292;Laerm;62687;55.738;37.516;2023-04-25T12:51:42;73.61;69.99;76.97;;
74292;Laerm;62687;55.738;37.516;2023-04-25T12:54:26;72.34;68.99;80.49;;
74292;Laerm;62687;55.738;37.516;2023-04-25T12:57:10;73.24;69.86;77.03;;
74292;Laerm;62687;55.738;37.516;2023-04-25T12:59:55;72.35;68.17;76.46;;
74292;Laerm;62687;55.738;37.516;2023-04-25T13:02:40;72.52;68.41;76.67;;
74292;Laerm;62687;55.738;37.516;2023-04-25T13:05:25;73.72;68.52;79.79;;
74292;Laerm;62687;55.738;37.516;2023-04-25T13:08:10;73.40;69.80;80.06;;
74292;Laerm;62687;55.738;37.516;2023-04-25T13:10:53;73.25;68.94;83.85;;
74292;Laerm;62687;55.738;37.516;2023-04-25T13:13:38;73.23;69.75;78.85;;
74292;Laerm;62687;55.738;37.516;2023-04-25T13:16:23;73.40;68.67;86.13;;
74292;Laerm;62687;55.738;37.516;2023-04-25T13:19:08;72.77;67.88;77.82;;
74292;Laerm;62687;55.738;37.516;2023-04-25T13:21:55;73.74;68.95;90.09;;
74292;Laerm;62687;55.738;37.516;2023-04-25T13:24:39;71.94;67.41;80.07;;
74292;Laerm;62687;55.738;37.516;2023-04-25T13:27:23;72.84;69.11;82.80;;
74292;Laerm;62687;55.738;37.516;2023-04-25T13:30:08;71.22;66.08;77.60;;
74292;Laerm;62687;55.738;37.516;2023-04-25T13:32:53;72.07;66.27;85.76;;
74292;Laerm;62687;55.738;37.516;2023-04-25T13:35:44;69.97;66.51;77.99;;
74292;Laerm;62687;55.738;37.516;2023-04-25T13:38:38;71.38;64.77;83.36;;
74292;Laerm;62687;55.738;37.516;2023-04-25T13:41:23;69.69;64.54;74.71;;
74292;Laerm;62687;55.738;37.516;2023-04-25T13:44:08;70.42;66.55;77.74;;
74292;Laerm;62687;55.738;37.516;2023-04-25T13:46:54;72.70;66.45;88.97;;
74292;Laerm;62687;55.738;37.516;2023-04-25T13:49:39;72.49;66.31;81.17;;
74292;Laerm;62687;55.738;37.516;2023-04-25T13:52:27;73.85;69.92;83.18;;
74292;Laerm;62687;55.738;37.516;2023-04-25T13:55:12;73.51;68.65;78.96;;
74292;Laerm;62687;55.738;37.516;2023-04-25T13:57:58;72.21;68.26;82.52;;
74292;Laerm;62687;55.738;37.516;2023-04-25T14:00:42;72.40;67.78;84.93;;
74292;Laerm;62687;55.738;37.516;2023-04-25T14:03:27;71.52;66.37;75.93;;
74292;Laerm;62687;55.738;37.516;2023-04-25T14:06:11;70.94;66.63;76.61;;
74292;Laerm;62687;55.738;37.516;2023-04-25T14:08:57;70.72;66.65;81.24;;
74292;Laerm;62687;55.738;37.516;2023-04-25T14:11:41;71.46;67.49;80.98;;
74292;Laerm;62687;55.738;37.516;2023-04-25T14:14:26;70.72;66.34;75.55;;
74292;Laerm;62687;55.738;37.516;2023-04-25T14:17:10;70.39;65.60;75.97;;
74292;Laerm;62687;55.738;37.516;2023-04-25T14:19:55;70.67;66.90;76.63;;
74292;Laerm;62687;55.738;37.516;2023-04-25T14:22:40;70.47;67.38;75.35;;
74292;Laerm;62687;55.738;37.516;2023-04-25T14:25:27;69.80;65.18;74.06;;
74292;Laerm;62687;55.738;37.516;2023-04-25T14:28:14;68.41;64.84;79.60;;
74292;Laerm;62687;55.738;37.516;2023-04-25T14:30:59;69.06;64.44;81.43;;
74292;Laerm;62687;55.738;37.516;2023-04-25T14:33:45;70.62;65.05;90.05;;
74292;Laerm;62687;55.738;37.516;2023-04-25T14:36:29;69.59;64.66;81.04;;
74292;Laerm;62687;55.738;37.516;2023-04-25T14:39:14;68.74;65.06;74.11;;
74292;Laerm;62687;55.738;37.516;2023-04-25T14:41:58;69.96;64.30;81.18;;
74292;Laerm;62687;55.738;37.516;2023-04-25T14:44:42;69.57;63.20;77.73;;
74292;Laerm;62687;55.738;37.516;2023-04-25T14:47:27;69.99;63.45;84.48;;
74292;Laerm;62687;55.738;37.516;2023-04-25T14:50:11;71.89;66.16;90.64;;
74292;Laerm;62687;55.738;37.516;2023-04-25T14:52:55;69.85;64.30;83.04;;
74292;Laerm;62687;55.738;37.516;2023-04-25T14:55:42;68.34;63.60;77.18;;
74292;Laerm;62687;55.738;37.516;2023-04-25T14:58:26;70.46;66.99;76.14;;
74292;Laerm;62687;55.738;37.516;2023-04-25T15:01:11;70.37;66.53;81.50;;
74292;Laerm;62687;55.738;37.516;2023-04-25T15:03:56;71.98;68.24;85.73;;
74292;Laerm;62687;55.738;37.516;2023-04-25T15:06:41;72.23;66.64;85.21;;
74292;Laerm;62687;55.738;37.516;2023-04-25T15:09:25;71.39;66.76;79.02;;
74292;Laerm;62687;55.738;37.516;2023-04-25T15:12:09;69.89;65.86;75.49;;
74292;Laerm;62687;55.738;37.516;2023-04-25T15:14:54;72.93;66.43;85.74;;
74292;Laerm;62687;55.738;37.516;2023-04-25T15:17:40;72.62;68.74;77.45;;
74292;Laerm;62687;55.738;37.516;2023-04-25T15:20:24;73.54;68.81;90.01;;
74292;Laerm;62687;55.738;37.516;2023-04-25T15:23:09;73.14;69.14;83.23;;